createdAt,value
2022-09-06T00:00:47.701Z,4.75
2022-09-06T00:03:36.187Z,4.60
2022-09-06T00:06:24.527Z,5.50
2022-09-06T00:09:14.181Z,4.80
2022-09-06T00:12:02.986Z,6.03
2022-09-06T00:14:51.793Z,5.50
2022-09-06T00:17:40.208Z,5.95
2022-09-06T00:20:28.747Z,5.32
2022-09-06T00:23:17.115Z,6.18
2022-09-06T00:26:07.342Z,7.28
2022-09-06T00:28:55.435Z,6.88
2022-09-06T00:31:43.984Z,6.10
2022-09-06T00:34:32.728Z,7.25
2022-09-06T00:37:21.351Z,4.82
2022-09-06T00:40:11.015Z,7.90
2022-09-06T00:43:00.815Z,6.57
2022-09-06T00:45:50.227Z,5.43
2022-09-06T00:48:40.394Z,7.00
2022-09-06T00:51:31.604Z,5.53
2022-09-06T00:54:20.394Z,5.50
2022-09-06T00:57:09.376Z,6.60
2022-09-06T01:00:00.471Z,6.28
2022-09-06T01:02:49.617Z,6.28
2022-09-06T01:05:50.561Z,5.43
2022-09-06T01:08:55.222Z,7.63
2022-09-06T01:11:54.828Z,5.65
2022-09-06T01:14:54.995Z,7.30
2022-09-06T01:17:59.965Z,5.47
2022-09-06T01:21:05.408Z,6.70
2022-09-06T01:24:35.620Z,6.43
2022-09-06T01:28:08.902Z,7.28
2022-09-06T01:31:11.200Z,6.60
2022-09-06T01:34:14.972Z,5.68
2022-09-06T01:37:10.354Z,7.18
2022-09-06T01:39:59.330Z,5.78
2022-09-06T01:42:50.515Z,7.15
2022-09-06T01:45:51.133Z,5.95
2022-09-06T01:49:04.685Z,6.75
2022-09-06T01:52:05.890Z,5.90
2022-09-06T01:58:12.475Z,5.63
2022-09-06T02:01:07.446Z,5.88
2022-09-06T02:04:03.254Z,6.80
2022-09-06T02:06:59.037Z,9.82
2022-09-06T02:09:52.706Z,7.07
2022-09-06T02:12:45.157Z,5.43
2022-09-06T02:15:36.159Z,8.32
2022-09-06T02:18:29.824Z,6.03
2022-09-06T02:21:23.698Z,6.13
2022-09-06T02:24:15.917Z,7.20
2022-09-06T02:27:05.221Z,6.05
2022-09-06T02:29:53.833Z,6.05
2022-09-06T02:32:48.305Z,5.47
2022-09-06T02:35:44.980Z,6.65
2022-09-06T02:38:36.710Z,6.55
2022-09-06T02:41:26.020Z,6.72
2022-09-06T02:44:14.469Z,5.63
2022-09-06T02:47:03.531Z,7.45
2022-09-06T02:49:52.098Z,7.53
2022-09-06T02:52:40.650Z,7.03
2022-09-06T02:55:30.527Z,6.22
2022-09-06T02:58:18.927Z,8.30
2022-09-06T03:01:07.467Z,6.55
2022-09-06T03:03:56.124Z,6.60
2022-09-06T03:06:44.695Z,6.47
2022-09-06T03:09:33.327Z,7.18
2022-09-06T03:12:23.242Z,6.38
2022-09-06T03:15:12.592Z,6.90
2022-09-06T03:18:01.539Z,6.57
2022-09-06T03:20:50.820Z,6.70
2022-09-06T03:23:40.186Z,7.68
2022-09-06T03:26:30.642Z,7.88
2022-09-06T03:29:20.993Z,6.88
2022-09-06T03:32:09.456Z,6.30
2022-09-06T03:34:58.390Z,6.60
2022-09-06T03:37:46.426Z,6.50
2022-09-06T03:40:35.156Z,6.75
2022-09-06T03:43:25.011Z,7.60
2022-09-06T03:46:14.826Z,7.85
2022-09-06T03:49:03.216Z,8.43
2022-09-06T03:51:51.759Z,7.05
2022-09-06T03:54:40.838Z,7.10
2022-09-06T03:57:29.069Z,7.28
2022-09-06T04:00:18.103Z,7.53
2022-09-06T04:03:07.625Z,7.50
2022-09-06T04:05:55.851Z,7.40
2022-09-06T04:08:44.377Z,7.82
2022-09-06T04:11:32.726Z,7.35
2022-09-06T04:14:21.347Z,8.07
2022-09-06T04:17:09.511Z,6.95
2022-09-06T04:19:59.431Z,8.68
2022-09-06T04:22:47.913Z,7.68
2022-09-06T04:25:36.920Z,7.80
2022-09-06T04:28:26.868Z,8.27
2022-09-06T04:31:15.474Z,8.20
2022-09-06T04:34:03.892Z,8.18
2022-09-06T04:36:53.895Z,9.48
2022-09-06T04:39:42.712Z,7.30
2022-09-06T04:42:31.346Z,7.93
2022-09-06T04:45:19.990Z,8.93
2022-09-06T04:48:08.296Z,8.32
2022-09-06T04:50:56.640Z,7.28
2022-09-06T04:53:47.232Z,8.50
2022-09-06T04:56:35.606Z,8.27
2022-09-06T04:59:24.394Z,8.75
2022-09-06T05:02:12.761Z,7.95
2022-09-06T05:05:00.951Z,8.57
2022-09-06T05:07:49.508Z,8.80
2022-09-06T05:10:39.512Z,8.52
2022-09-06T05:13:28.328Z,8.27
2022-09-06T05:16:16.515Z,7.97
2022-09-06T05:19:05.258Z,8.05
2022-09-06T05:21:53.951Z,8.20
2022-09-06T05:24:42.324Z,9.13
2022-09-06T05:27:32.243Z,8.80
2022-09-06T05:30:20.877Z,8.20
2022-09-06T05:33:08.956Z,8.10
2022-09-06T05:35:57.409Z,8.32
2022-09-06T05:38:45.980Z,7.82
2022-09-06T05:41:34.139Z,8.20
2022-09-06T05:44:23.771Z,7.95
2022-09-06T05:47:12.469Z,7.55
2022-09-06T05:50:00.820Z,8.25
2022-09-06T05:52:49.374Z,7.22
2022-09-06T05:55:42.297Z,7.55
2022-09-06T05:58:31.730Z,8.50
2022-09-06T06:01:23.001Z,8.48
2022-09-06T06:04:11.517Z,9.38
2022-09-06T06:07:00.122Z,7.50
2022-09-06T06:09:48.716Z,8.00
2022-09-06T06:12:37.395Z,7.60
2022-09-06T06:15:25.647Z,9.02
2022-09-06T06:18:15.403Z,7.55
2022-09-06T06:21:12.184Z,8.70
2022-09-06T06:24:02.113Z,9.15
2022-09-06T06:26:52.078Z,8.38
2022-09-06T06:29:40.263Z,7.95
2022-09-06T06:32:28.994Z,8.00
2022-09-06T06:35:18.810Z,7.82
2022-09-06T06:38:07.192Z,8.07
2022-09-06T06:41:00.962Z,7.97
2022-09-06T06:43:53.890Z,8.05
2022-09-06T06:46:42.649Z,7.28
2022-09-06T06:49:30.863Z,7.85
2022-09-06T06:52:21.815Z,7.32
2022-09-06T06:55:11.101Z,7.47
2022-09-06T06:58:02.037Z,7.68
2022-09-06T07:03:39.137Z,7.22
2022-09-06T07:12:48.520Z,8.43
2022-09-06T07:15:36.845Z,8.13
2022-09-06T07:18:25.522Z,8.77
2022-09-06T07:24:23.590Z,10.02
2022-09-06T07:30:21.927Z,8.77
2022-09-06T07:33:10.091Z,7.70
2022-09-06T07:36:00.184Z,9.15
2022-09-06T07:38:50.952Z,8.00
2022-09-06T07:44:29.526Z,7.25
2022-09-06T07:53:36.198Z,9.10
2022-09-06T07:56:25.785Z,7.95
2022-09-06T07:59:14.404Z,7.65
2022-09-06T08:02:04.199Z,7.97
2022-09-06T08:04:53.496Z,9.33
2022-09-06T08:07:41.972Z,9.45
2022-09-06T08:10:31.010Z,8.48
2022-09-06T08:13:19.410Z,9.05
2022-09-06T08:16:10.279Z,9.93
2022-09-06T08:19:01.342Z,8.07
2022-09-06T08:21:49.839Z,8.93
2022-09-06T08:24:38.967Z,11.25
2022-09-06T08:27:27.227Z,10.45
2022-09-06T08:30:16.043Z,8.85
2022-09-06T08:33:05.077Z,9.50
2022-09-06T08:36:00.580Z,8.45
2022-09-06T08:38:49.492Z,8.45
2022-09-06T08:41:47.728Z,8.68
2022-09-06T08:47:41.833Z,8.45
2022-09-06T08:50:31.724Z,8.05
2022-09-06T08:53:21.707Z,9.25
2022-09-06T08:56:16.943Z,10.00
2022-09-06T08:59:08.022Z,7.25
2022-09-06T09:04:53.834Z,9.68
2022-09-06T09:07:46.428Z,9.43
2022-09-06T09:10:43.889Z,8.40
2022-09-06T09:13:36.343Z,7.60
2022-09-06T09:16:25.228Z,8.95
2022-09-06T09:19:15.226Z,8.60
2022-09-06T09:22:04.381Z,10.57
2022-09-06T09:24:54.700Z,9.10
2022-09-06T09:27:45.575Z,8.93
2022-09-06T09:30:49.559Z,11.30
2022-09-06T09:33:39.330Z,7.82
2022-09-06T09:36:27.580Z,9.20
2022-09-06T09:39:16.181Z,8.95
2022-09-06T09:42:04.974Z,8.98
2022-09-06T09:44:54.818Z,11.30
2022-09-06T09:47:44.076Z,9.25
2022-09-06T09:50:34.659Z,9.60
2022-09-06T09:53:24.989Z,7.80
2022-09-06T09:56:16.094Z,9.82
2022-09-06T09:59:07.596Z,9.80
2022-09-06T10:02:00.317Z,8.90
2022-09-06T10:04:50.954Z,8.32
2022-09-06T10:07:45.555Z,9.23
2022-09-06T10:10:39.924Z,9.00
2022-09-06T10:13:31.274Z,8.18
2022-09-06T10:16:44.757Z,9.32
2022-09-06T10:19:43.293Z,7.82
2022-09-06T10:22:33.517Z,8.80
2022-09-06T10:25:49.199Z,8.93
2022-09-06T10:28:41.961Z,8.85
2022-09-06T10:31:59.469Z,8.10
2022-09-06T10:35:21.280Z,8.25
2022-09-06T10:38:32.489Z,8.02
2022-09-06T10:41:41.687Z,8.00
2022-09-06T10:44:45.834Z,9.32
2022-09-06T10:47:44.500Z,8.73
2022-09-06T10:50:46.673Z,9.07
2022-09-06T10:53:45.811Z,9.48
2022-09-06T10:56:40.755Z,8.07
2022-09-06T10:59:36.019Z,8.75
2022-09-06T11:02:37.526Z,8.90
2022-09-06T11:05:44.676Z,8.13
2022-09-06T11:08:49.155Z,9.18
2022-09-06T11:11:45.555Z,9.27
2022-09-06T11:14:36.876Z,10.68
2022-09-06T11:17:33.031Z,9.73
2022-09-06T11:20:29.983Z,8.80
2022-09-06T11:23:45.943Z,8.80
2022-09-06T11:26:37.755Z,8.98
2022-09-06T11:29:28.366Z,10.45
2022-09-06T11:32:33.080Z,8.90
2022-09-06T11:35:27.316Z,8.65
2022-09-06T11:38:25.328Z,9.02
2022-09-06T11:41:18.549Z,9.18
2022-09-06T11:44:07.990Z,9.43
2022-09-06T11:47:01.350Z,10.15
2022-09-06T11:49:49.986Z,9.23
2022-09-06T11:53:12.939Z,9.88
2022-09-06T11:56:26.242Z,10.45
2022-09-06T11:59:29.604Z,8.73
2022-09-06T12:02:37.066Z,8.65
2022-09-06T12:05:31.415Z,9.00
2022-09-06T12:08:33.069Z,9.82
2022-09-06T12:11:37.018Z,9.25
2022-09-06T12:14:36.568Z,10.68
2022-09-06T12:17:25.947Z,10.30
2022-09-06T12:20:53.024Z,9.45
2022-09-06T12:23:44.634Z,10.07
2022-09-06T12:26:55.908Z,9.43
2022-09-06T12:29:58.180Z,9.43
2022-09-06T12:32:49.603Z,9.85
2022-09-06T12:38:41.675Z,9.68
2022-09-06T12:41:31.957Z,10.30
2022-09-06T12:44:30.613Z,10.35
2022-09-06T12:47:25.717Z,10.02
2022-09-06T12:50:20.800Z,8.95
2022-09-06T12:53:24.551Z,9.45
2022-09-06T12:56:13.960Z,9.13
2022-09-06T12:59:14.293Z,8.95
2022-09-06T13:02:10.231Z,10.48
2022-09-06T13:05:05.563Z,10.20
2022-09-06T13:07:56.009Z,9.35
2022-09-06T13:10:47.744Z,8.75
2022-09-06T13:13:36.128Z,9.10
2022-09-06T13:16:26.349Z,9.60
2022-09-06T13:19:19.075Z,9.35
2022-09-06T13:22:10.989Z,7.20
2022-09-06T13:25:00.156Z,6.10
2022-09-06T13:27:51.231Z,6.97
2022-09-06T13:30:49.664Z,7.22
2022-09-06T13:33:39.019Z,6.25
2022-09-06T13:36:31.205Z,6.57
2022-09-06T13:39:34.651Z,7.60
2022-09-06T13:42:27.999Z,6.90
2022-09-06T13:45:26.062Z,6.97
2022-09-06T13:48:28.672Z,8.38
2022-09-06T13:51:18.436Z,8.25
2022-09-06T13:54:10.644Z,8.25
2022-09-06T13:56:59.341Z,6.93
2022-09-06T13:59:47.682Z,6.93
2022-09-06T14:02:37.443Z,7.30
2022-09-06T14:05:26.259Z,6.43
2022-09-06T14:08:14.495Z,6.88
2022-09-06T14:11:04.361Z,7.43
2022-09-06T14:13:53.299Z,6.80
2022-09-06T14:16:41.472Z,7.05
2022-09-06T14:19:30.164Z,6.82
2022-09-06T14:22:18.860Z,6.18
2022-09-06T14:25:08.258Z,7.30
2022-09-06T14:27:57.923Z,6.43
2022-09-06T14:30:46.653Z,6.75
2022-09-06T14:33:35.151Z,5.63
2022-09-06T14:36:25.952Z,6.78
2022-09-06T14:39:14.608Z,6.07
2022-09-06T14:42:03.094Z,7.03
2022-09-06T14:44:53.267Z,6.85
2022-09-06T14:47:41.868Z,6.67
2022-09-06T14:50:31.586Z,6.97
2022-09-06T14:53:39.250Z,5.95
2022-09-06T14:56:28.614Z,7.47
2022-09-06T14:59:17.005Z,5.97
2022-09-06T15:02:06.936Z,6.20
2022-09-06T15:04:56.261Z,5.13
2022-09-06T15:07:44.853Z,5.88
2022-09-06T15:10:33.167Z,5.97
2022-09-06T15:13:21.754Z,5.80
2022-09-06T15:16:11.964Z,5.80
2022-09-06T15:19:03.021Z,5.90
2022-09-06T15:21:51.981Z,6.22
2022-09-06T15:24:40.826Z,6.32
2022-09-06T15:27:30.168Z,6.03
2022-09-06T15:30:18.915Z,4.78
2022-09-06T15:33:10.238Z,5.85
2022-09-06T15:38:50.796Z,7.28
2022-09-06T15:41:40.875Z,5.90
2022-09-06T15:44:29.480Z,5.47
2022-09-06T15:47:18.194Z,5.95
2022-09-06T15:50:07.222Z,6.35
2022-09-06T15:52:56.833Z,5.45
2022-09-06T15:55:58.082Z,5.60
2022-09-06T15:58:47.006Z,5.23
2022-09-06T16:01:36.999Z,6.75
2022-09-06T16:04:25.100Z,6.15
2022-09-06T16:07:13.647Z,6.07
2022-09-06T16:10:03.761Z,5.65
2022-09-06T16:12:54.642Z,6.45
2022-09-06T16:15:43.545Z,5.60
2022-09-06T16:18:32.898Z,5.15
2022-09-06T16:21:24.128Z,6.18
2022-09-06T16:24:14.903Z,6.32
2022-09-06T16:27:04.882Z,5.75
2022-09-06T16:29:53.473Z,7.13
2022-09-06T16:32:41.910Z,5.72
2022-09-06T16:35:30.538Z,5.97
2022-09-06T16:38:19.898Z,6.55
2022-09-06T16:41:14.537Z,5.95
2022-09-06T16:44:04.764Z,6.07
2022-09-06T16:46:55.532Z,6.03
2022-09-06T16:49:44.572Z,5.72
2022-09-06T16:52:33.146Z,6.07
2022-09-06T16:55:21.844Z,5.97
2022-09-06T16:58:10.506Z,7.80
2022-09-06T17:01:01.195Z,7.25
2022-09-06T17:03:50.054Z,6.88
2022-09-06T17:06:44.809Z,5.70
2022-09-06T17:09:35.327Z,5.80
2022-09-06T17:12:24.467Z,5.15
2022-09-06T17:15:13.197Z,5.35
2022-09-06T17:18:02.245Z,4.97
2022-09-06T17:20:57.547Z,5.95
2022-09-06T17:23:45.764Z,5.78
2022-09-06T17:26:37.259Z,5.10
2022-09-06T17:29:25.976Z,5.45
2022-09-06T17:32:14.699Z,5.28
2022-09-06T17:35:04.973Z,5.10
2022-09-06T17:37:53.654Z,5.95
2022-09-06T17:40:42.174Z,5.15
2022-09-06T17:43:30.716Z,6.15
2022-09-06T17:46:19.123Z,6.15
2022-09-06T17:49:08.207Z,6.65
2022-09-06T17:51:58.568Z,4.63
2022-09-06T17:54:48.092Z,5.05
2022-09-06T17:57:36.311Z,6.10
2022-09-06T18:00:26.194Z,5.13
2022-09-06T18:03:14.304Z,6.07
2022-09-06T18:06:07.677Z,6.45
2022-09-06T18:08:59.998Z,6.40
2022-09-06T18:11:48.864Z,6.28
2022-09-06T18:14:37.300Z,5.47
2022-09-06T18:17:27.006Z,5.32
2022-09-06T18:20:15.918Z,6.07
2022-09-06T18:23:04.392Z,5.10
2022-09-06T18:25:59.200Z,6.60
2022-09-06T18:28:47.847Z,6.18
2022-09-06T18:31:36.924Z,6.00
2022-09-06T18:34:25.174Z,5.60
2022-09-06T18:37:14.824Z,5.35
2022-09-06T18:40:03.420Z,6.78
2022-09-06T18:42:53.557Z,5.22
2022-09-06T18:45:43.112Z,5.57
2022-09-06T18:48:33.154Z,6.18
2022-09-06T18:51:21.954Z,6.30
2022-09-06T18:54:11.184Z,5.40
2022-09-06T18:57:00.091Z,5.50
2022-09-06T18:59:50.946Z,7.20
2022-09-06T19:02:39.291Z,5.80
2022-09-06T19:05:27.668Z,6.95
2022-09-06T19:08:15.985Z,5.30
2022-09-06T19:11:07.996Z,6.25
2022-09-06T19:13:57.955Z,5.45
2022-09-06T19:16:48.802Z,5.10
2022-09-06T19:19:37.242Z,5.63
2022-09-06T19:22:26.793Z,6.47
2022-09-06T19:25:15.887Z,5.95
2022-09-06T19:28:04.639Z,5.78
2022-09-06T19:30:52.989Z,5.93
2022-09-06T19:33:43.435Z,5.43
2022-09-06T19:36:32.939Z,6.10
2022-09-06T19:39:21.893Z,5.97
2022-09-06T19:42:10.865Z,4.45
2022-09-06T19:44:59.624Z,5.05
2022-09-06T19:47:47.831Z,5.30
2022-09-06T19:50:38.918Z,4.75
2022-09-06T19:53:27.608Z,6.68
2022-09-06T19:56:18.570Z,5.65
2022-09-06T19:59:09.281Z,5.63
2022-09-06T20:01:57.617Z,5.37
2022-09-06T20:04:46.872Z,5.35
2022-09-06T20:07:36.661Z,6.10
2022-09-06T20:10:26.122Z,5.22
2022-09-06T20:13:14.215Z,5.55
2022-09-06T20:16:04.336Z,5.30
2022-09-06T20:18:53.103Z,5.60
2022-09-06T20:21:41.892Z,6.35
2022-09-06T20:24:31.564Z,6.18
2022-09-06T20:27:20.335Z,6.00
2022-09-06T20:30:09.697Z,5.60
2022-09-06T20:32:59.220Z,4.55
2022-09-06T20:35:55.989Z,5.47
2022-09-06T20:38:45.525Z,4.50
2022-09-06T20:41:35.408Z,5.47
2022-09-06T20:44:24.200Z,5.95
2022-09-06T20:47:12.817Z,4.75
2022-09-06T20:50:02.089Z,4.50
2022-09-06T20:52:50.355Z,6.50
2022-09-06T20:55:38.767Z,4.90
2022-09-06T20:58:29.453Z,4.63
2022-09-06T21:01:22.645Z,4.80
2022-09-06T21:04:13.389Z,7.63
2022-09-06T21:07:02.058Z,5.10
2022-09-06T21:09:50.410Z,4.82
2022-09-06T21:12:38.691Z,5.72
2022-09-06T21:15:29.708Z,4.95
2022-09-06T21:18:18.325Z,5.90
2022-09-06T21:21:08.867Z,5.28
2022-09-06T21:23:57.509Z,5.63
2022-09-06T21:26:46.496Z,5.82
2022-09-06T21:29:34.993Z,4.68
2022-09-06T21:32:25.393Z,4.57
2022-09-06T21:35:14.092Z,6.47
2022-09-06T21:38:02.569Z,5.68
2022-09-06T21:40:50.919Z,5.38
2022-09-06T21:43:39.966Z,4.90
2022-09-06T21:46:32.926Z,4.65
2022-09-06T21:49:23.203Z,4.28
2022-09-06T21:52:11.983Z,7.05
2022-09-06T21:55:00.571Z,5.43
2022-09-06T21:57:49.293Z,5.10
2022-09-06T22:00:38.281Z,4.55
2022-09-06T22:03:27.083Z,5.28
2022-09-06T22:06:20.271Z,4.70
2022-09-06T22:09:12.978Z,4.82
2022-09-06T22:12:01.620Z,4.85
2022-09-06T22:14:50.152Z,4.50
2022-09-06T22:17:39.239Z,5.05
2022-09-06T22:20:27.486Z,6.72
2022-09-06T22:23:17.362Z,4.65
2022-09-06T22:26:08.290Z,4.13
2022-09-06T22:28:58.300Z,4.63
2022-09-06T22:31:46.891Z,4.85
2022-09-06T22:34:35.215Z,4.53
2022-09-06T22:37:23.651Z,4.70
2022-09-06T22:40:13.926Z,4.13
2022-09-06T22:43:02.512Z,4.13
2022-09-06T22:45:52.153Z,4.40
2022-09-06T22:48:41.178Z,4.63
2022-09-06T22:51:29.475Z,4.50
2022-09-06T22:54:17.992Z,4.85
2022-09-06T22:57:07.982Z,4.35
2022-09-06T22:59:56.484Z,3.87
2022-09-06T23:02:45.060Z,5.13
2022-09-06T23:05:33.565Z,4.45
2022-09-06T23:08:22.075Z,4.78
2022-09-06T23:11:12.834Z,4.13
2022-09-06T23:14:03.381Z,3.90
2022-09-06T23:16:51.864Z,3.85
2022-09-06T23:19:40.559Z,4.07
2022-09-06T23:22:29.407Z,3.83
2022-09-06T23:25:18.672Z,3.70
2022-09-06T23:28:06.996Z,3.55
2022-09-06T23:30:56.940Z,3.85
2022-09-06T23:33:45.604Z,3.63
2022-09-06T23:36:34.305Z,3.60
2022-09-06T23:39:23.122Z,4.10
2022-09-06T23:42:11.167Z,3.40
2022-09-06T23:44:59.687Z,3.40
2022-09-06T23:47:49.732Z,3.50
2022-09-06T23:50:37.983Z,4.50
2022-09-06T23:53:26.759Z,4.18
2022-09-06T23:56:15.802Z,3.38
2022-09-06T23:59:04.031Z,3.40
